createdAt,value
2022-08-17T00:01:52.124Z,99.90
2022-08-17T00:04:20.347Z,99.90
2022-08-17T00:06:49.171Z,99.90
2022-08-17T00:09:18.478Z,99.90
2022-08-17T00:12:42.248Z,99.90
2022-08-17T00:14:34.897Z,99.90
2022-08-17T00:17:03.842Z,99.90
2022-08-17T00:19:32.546Z,99.90
2022-08-17T00:22:31.601Z,99.90
2022-08-17T00:24:50.116Z,99.90
2022-08-17T00:27:17.306Z,99.90
2022-08-17T00:29:45.717Z,99.90
2022-08-17T00:33:11.926Z,99.90
2022-08-17T00:35:00.477Z,99.90
2022-08-17T00:37:27.623Z,99.90
2022-08-17T00:39:54.599Z,99.90
2022-08-17T00:42:21.492Z,99.90
2022-08-17T00:44:48.430Z,99.90
2022-08-17T00:47:15.219Z,99.90
2022-08-17T00:49:42.044Z,99.90
2022-08-17T00:52:16.619Z,99.90
2022-08-17T00:54:46.974Z,99.90
2022-08-17T00:57:23.391Z,99.90
2022-08-17T01:00:06.325Z,99.90
2022-08-17T01:02:42.497Z,99.90
2022-08-17T01:05:18.425Z,99.90
2022-08-17T01:07:47.806Z,99.90
2022-08-17T01:10:58.157Z,99.90
2022-08-17T01:13:04.189Z,99.90
2022-08-17T01:15:33.724Z,99.90
2022-08-17T01:18:00.617Z,99.90
2022-08-17T01:20:27.672Z,99.90
2022-08-17T01:22:54.520Z,99.90
2022-08-17T01:25:22.152Z,99.90
2022-08-17T01:27:49.747Z,99.90
2022-08-17T01:30:56.922Z,99.90
2022-08-17T01:33:04.657Z,99.90
2022-08-17T01:35:31.671Z,99.90
2022-08-17T01:37:58.496Z,99.90
2022-08-17T01:40:43.247Z,99.90
2022-08-17T01:43:21.539Z,99.90
2022-08-17T01:46:03.508Z,99.90
2022-08-17T01:48:34.217Z,99.90
2022-08-17T01:51:01.424Z,99.90
2022-08-17T01:53:37.450Z,99.90
2022-08-17T01:56:10.761Z,99.90
2022-08-17T01:58:39.849Z,99.90
2022-08-17T02:01:08.226Z,99.90
2022-08-17T02:03:36.451Z,99.90
2022-08-17T02:06:05.430Z,99.90
2022-08-17T02:08:38.690Z,99.90
2022-08-17T02:11:11.813Z,99.90
2022-08-17T02:13:39.310Z,99.90
2022-08-17T02:16:06.760Z,99.90
2022-08-17T02:18:33.988Z,99.90
2022-08-17T02:21:00.802Z,99.90
2022-08-17T02:23:30.244Z,99.90
2022-08-17T02:25:59.730Z,99.90
2022-08-17T02:28:28.389Z,99.90
2022-08-17T02:31:01.518Z,99.90
2022-08-17T02:33:42.041Z,99.90
2022-08-17T02:36:12.118Z,99.90
2022-08-17T02:38:39.861Z,99.90
2022-08-17T02:41:07.032Z,99.90
2022-08-17T02:43:34.910Z,99.90
2022-08-17T02:46:01.937Z,99.90
2022-08-17T02:48:31.611Z,99.90
2022-08-17T02:50:59.938Z,99.90
2022-08-17T02:53:27.633Z,99.90
2022-08-17T02:56:02.590Z,99.90
2022-08-17T02:58:34.314Z,99.90
2022-08-17T03:01:05.093Z,99.90
2022-08-17T03:03:31.944Z,99.90
2022-08-17T03:05:58.792Z,99.90
2022-08-17T03:08:25.685Z,99.90
2022-08-17T03:10:52.697Z,99.90
2022-08-17T03:13:20.021Z,99.90
2022-08-17T03:15:48.405Z,99.90
2022-08-17T03:18:19.078Z,99.90
2022-08-17T03:20:56.140Z,99.90
2022-08-17T03:23:25.478Z,99.90
2022-08-17T03:25:54.120Z,99.90
2022-08-17T03:28:22.456Z,99.90
2022-08-17T03:30:51.013Z,99.90
2022-08-17T03:33:18.586Z,99.90
2022-08-17T03:35:45.680Z,99.90
2022-08-17T03:38:15.357Z,99.90
2022-08-17T03:40:58.058Z,99.90
2022-08-17T03:43:29.447Z,99.90
2022-08-17T03:46:28.485Z,99.90
2022-08-17T03:49:24.673Z,99.90
2022-08-17T03:52:10.614Z,99.90
2022-08-17T03:54:56.129Z,99.90
2022-08-17T03:57:23.185Z,99.90
2022-08-17T03:59:50.668Z,99.90
2022-08-17T04:02:34.439Z,99.90
2022-08-17T04:05:01.597Z,99.90
2022-08-17T04:07:30.466Z,99.90
2022-08-17T04:09:58.213Z,99.90
2022-08-17T04:12:26.422Z,99.90
2022-08-17T04:14:55.036Z,99.90
2022-08-17T04:17:25.133Z,99.90
2022-08-17T04:19:52.526Z,99.90
2022-08-17T04:22:30.601Z,99.90
2022-08-17T04:25:08.562Z,99.90
2022-08-17T04:27:36.096Z,99.90
2022-08-17T04:30:03.767Z,99.90
2022-08-17T04:33:04.099Z,99.90
2022-08-17T04:35:20.197Z,99.90
2022-08-17T04:37:47.471Z,99.90
2022-08-17T04:40:32.741Z,99.90
2022-08-17T04:43:07.729Z,99.90
2022-08-17T04:45:54.995Z,99.90
2022-08-17T04:48:29.686Z,99.90
2022-08-17T04:51:07.438Z,99.90
2022-08-17T04:53:34.330Z,99.90
2022-08-17T04:56:01.313Z,99.90
2022-08-17T04:58:28.183Z,99.90
2022-08-17T05:00:55.039Z,99.90
2022-08-17T05:03:21.871Z,99.90
2022-08-17T05:05:49.831Z,99.90
2022-08-17T05:08:19.479Z,99.90
2022-08-17T05:10:47.234Z,99.90
2022-08-17T05:13:26.242Z,99.90
2022-08-17T05:15:56.349Z,99.90
2022-08-17T05:18:24.532Z,99.90
2022-08-17T05:20:52.636Z,99.90
2022-08-17T05:23:22.144Z,99.90
2022-08-17T05:25:51.419Z,99.90
2022-08-17T05:28:23.535Z,99.90
2022-08-17T05:30:54.937Z,99.90
2022-08-17T05:33:26.349Z,99.90
2022-08-17T05:35:55.316Z,99.90
2022-08-17T05:38:24.464Z,99.90
2022-08-17T05:40:51.747Z,99.90
2022-08-17T05:43:30.904Z,99.90
2022-08-17T05:46:03.517Z,99.90
2022-08-17T05:48:43.275Z,99.90
2022-08-17T05:51:37.791Z,99.90
2022-08-17T05:54:22.869Z,99.90
2022-08-17T05:57:16.199Z,99.90
2022-08-17T06:00:04.612Z,99.90
2022-08-17T06:02:57.173Z,99.90
2022-08-17T06:05:23.984Z,99.90
2022-08-17T06:08:23.063Z,99.90
2022-08-17T06:11:28.191Z,99.90
2022-08-17T06:14:22.230Z,99.90
2022-08-17T06:16:54.635Z,99.90
2022-08-17T06:19:40.606Z,99.90
2022-08-17T06:22:10.090Z,99.90
2022-08-17T06:25:05.296Z,99.90
2022-08-17T06:27:46.187Z,99.90
2022-08-17T06:30:25.767Z,99.90
2022-08-17T06:32:55.893Z,99.90
2022-08-17T06:35:37.911Z,99.90
2022-08-17T06:38:34.995Z,99.90
2022-08-17T06:41:37.800Z,99.90
2022-08-17T06:44:57.311Z,99.90
2022-08-17T06:47:49.373Z,99.90
2022-08-17T06:50:27.945Z,99.90
2022-08-17T06:53:19.745Z,99.90
2022-08-17T06:55:52.410Z,99.90
2022-08-17T06:58:23.652Z,99.90
2022-08-17T07:01:00.968Z,99.90
2022-08-17T07:03:54.733Z,99.90
2022-08-17T07:06:25.106Z,99.90
2022-08-17T07:09:23.196Z,99.90
2022-08-17T07:11:54.400Z,99.90
2022-08-17T07:14:57.908Z,99.90
2022-08-17T07:17:36.938Z,99.90
2022-08-17T07:20:20.476Z,99.90
2022-08-17T07:23:06.683Z,99.90
2022-08-17T07:25:33.530Z,99.90
2022-08-17T07:28:05.296Z,99.90
2022-08-17T07:30:45.853Z,99.90
2022-08-17T07:33:28.103Z,99.90
2022-08-17T07:35:58.115Z,99.90
2022-08-17T07:38:30.506Z,99.90
2022-08-17T07:41:00.208Z,99.90
2022-08-17T07:43:40.251Z,99.90
2022-08-17T07:46:37.495Z,99.90
2022-08-17T07:49:04.989Z,99.90
2022-08-17T07:51:42.690Z,99.90
2022-08-17T07:54:15.693Z,99.90
2022-08-17T07:56:47.112Z,99.90
2022-08-17T07:59:24.012Z,99.90
2022-08-17T08:01:58.064Z,99.90
2022-08-17T08:04:58.879Z,99.90
2022-08-17T08:07:48.962Z,99.90
2022-08-17T08:10:27.949Z,99.90
2022-08-17T08:13:20.962Z,99.90
2022-08-17T08:15:54.232Z,99.90
2022-08-17T08:18:53.773Z,99.90
2022-08-17T08:21:29.152Z,99.90
2022-08-17T08:24:34.710Z,99.90
2022-08-17T08:27:27.666Z,99.90
2022-08-17T08:30:08.761Z,99.90
2022-08-17T08:32:38.518Z,99.90
2022-08-17T08:35:07.690Z,99.90
2022-08-17T08:37:47.934Z,99.90
2022-08-17T08:40:51.761Z,99.90
2022-08-17T08:43:26.561Z,99.90
2022-08-17T08:45:56.677Z,99.90
2022-08-17T08:48:53.639Z,99.90
2022-08-17T08:51:57.329Z,99.90
2022-08-17T08:54:58.460Z,99.90
2022-08-17T08:57:36.132Z,99.90
2022-08-17T09:00:06.411Z,99.90
2022-08-17T09:02:42.291Z,99.90
2022-08-17T09:05:16.121Z,99.90
2022-08-17T09:08:01.475Z,99.90
2022-08-17T09:10:54.043Z,99.90
2022-08-17T09:13:31.220Z,99.90
2022-08-17T09:16:06.684Z,99.90
2022-08-17T09:19:00.418Z,99.90
2022-08-17T09:21:48.533Z,99.90
2022-08-17T09:24:29.041Z,99.90
2022-08-17T09:27:18.346Z,99.90
2022-08-17T09:29:56.377Z,99.90
2022-08-17T09:32:31.189Z,99.30
2022-08-17T09:35:14.748Z,98.20
2022-08-17T09:38:03.912Z,96.80
2022-08-17T09:41:11.091Z,95.30
2022-08-17T09:43:50.644Z,94.50
2022-08-17T09:46:23.931Z,93.90
2022-08-17T09:48:57.562Z,93.70
2022-08-17T09:51:35.867Z,93.00
2022-08-17T09:54:34.969Z,93.00
2022-08-17T09:57:28.008Z,92.40
2022-08-17T09:59:57.332Z,91.40
2022-08-17T10:02:50.886Z,90.10
2022-08-17T10:05:24.036Z,89.20
2022-08-17T10:08:01.984Z,86.30
2022-08-17T10:10:56.618Z,85.50
2022-08-17T10:13:53.084Z,83.40
2022-08-17T10:16:40.765Z,80.20
2022-08-17T10:19:18.542Z,80.20
2022-08-17T10:22:14.513Z,81.90
2022-08-17T10:25:22.642Z,79.20
2022-08-17T10:28:01.364Z,80.40
2022-08-17T10:30:32.358Z,77.70
2022-08-17T10:33:06.747Z,76.60
2022-08-17T10:35:39.759Z,76.00
2022-08-17T10:38:31.536Z,76.30
2022-08-17T10:41:30.986Z,77.10
2022-08-17T10:44:38.932Z,74.70
2022-08-17T10:47:11.715Z,76.00
2022-08-17T10:49:55.913Z,75.20
2022-08-17T10:52:25.039Z,74.50
2022-08-17T10:54:58.398Z,76.20
2022-08-17T10:57:31.951Z,74.60
2022-08-17T11:00:01.466Z,75.30
2022-08-17T11:02:52.874Z,74.50
2022-08-17T11:05:44.115Z,75.20
2022-08-17T11:08:54.186Z,74.80
2022-08-17T11:11:39.875Z,74.20
2022-08-17T11:14:13.886Z,73.50
2022-08-17T11:17:13.057Z,73.30
2022-08-17T11:19:53.772Z,73.50
2022-08-17T11:22:41.275Z,73.10
2022-08-17T11:25:20.463Z,72.10
2022-08-17T11:27:53.821Z,70.70
2022-08-17T11:30:44.432Z,69.10
2022-08-17T11:33:44.652Z,68.60
2022-08-17T11:36:34.340Z,66.80
2022-08-17T11:39:25.021Z,66.40
2022-08-17T11:42:11.864Z,65.20
2022-08-17T11:44:38.720Z,65.50
2022-08-17T11:47:42.703Z,62.40
2022-08-17T11:50:52.076Z,60.50
2022-08-17T11:53:37.241Z,58.70
2022-08-17T11:56:31.726Z,58.60
2022-08-17T11:59:00.667Z,56.40
2022-08-17T12:01:29.283Z,56.40
2022-08-17T12:04:25.154Z,56.60
2022-08-17T12:06:54.585Z,55.60
2022-08-17T12:09:25.093Z,57.00
2022-08-17T12:12:11.787Z,58.40
2022-08-17T12:17:40.767Z,58.60
2022-08-17T12:20:23.041Z,58.00
2022-08-17T12:23:01.102Z,57.60
2022-08-17T12:26:12.814Z,58.00
2022-08-17T12:28:45.747Z,59.30
2022-08-17T12:31:24.633Z,59.70
2022-08-17T12:33:52.181Z,60.70
2022-08-17T12:36:28.233Z,60.10
2022-08-17T12:39:14.024Z,59.50
2022-08-17T12:41:45.257Z,58.90
2022-08-17T12:44:13.733Z,59.20
2022-08-17T12:46:51.916Z,59.70
2022-08-17T12:49:32.888Z,60.10
2022-08-17T12:52:16.904Z,60.00
2022-08-17T12:55:21.316Z,59.20
2022-08-17T12:57:54.182Z,58.70
2022-08-17T13:00:29.003Z,58.90
2022-08-17T13:03:18.001Z,58.60
2022-08-17T13:05:58.865Z,60.00
2022-08-17T13:08:31.817Z,59.90
2022-08-17T13:11:09.761Z,60.00
2022-08-17T13:13:42.062Z,59.80
2022-08-17T13:16:11.820Z,58.40
2022-08-17T13:18:43.762Z,57.00
2022-08-17T13:21:33.238Z,56.50
2022-08-17T13:24:13.696Z,56.90
2022-08-17T13:26:51.530Z,57.70
2022-08-17T13:29:29.381Z,57.60
2022-08-17T13:32:16.500Z,57.90
2022-08-17T13:35:12.537Z,57.40
2022-08-17T13:37:41.026Z,56.20
2022-08-17T13:40:09.589Z,56.40
2022-08-17T13:42:52.854Z,56.60
2022-08-17T13:45:39.152Z,57.30
2022-08-17T13:48:13.888Z,57.90
2022-08-17T13:50:46.064Z,57.80
2022-08-17T13:53:33.867Z,58.00
2022-08-17T13:56:38.204Z,57.90
2022-08-17T13:59:15.729Z,58.40
2022-08-17T14:01:53.543Z,58.70
2022-08-17T14:04:31.739Z,59.60
2022-08-17T14:07:11.545Z,59.70
2022-08-17T14:09:52.466Z,60.10
2022-08-17T14:12:25.088Z,60.70
2022-08-17T14:14:53.346Z,59.70
2022-08-17T14:17:20.245Z,60.00
2022-08-17T14:19:48.053Z,60.30
2022-08-17T14:22:27.551Z,60.20
2022-08-17T14:24:58.327Z,60.90
2022-08-17T14:27:28.073Z,61.50
2022-08-17T14:29:56.398Z,60.40
2022-08-17T14:32:32.611Z,60.00
2022-08-17T14:35:00.094Z,60.10
2022-08-17T14:37:28.735Z,59.70
2022-08-17T14:39:58.649Z,59.90
2022-08-17T14:42:27.715Z,59.30
2022-08-17T14:44:55.894Z,59.30
2022-08-17T14:47:22.773Z,58.80
2022-08-17T14:49:49.611Z,58.70
2022-08-17T14:52:21.515Z,58.60
2022-08-17T14:54:51.242Z,60.50
2022-08-17T14:57:33.673Z,62.40
2022-08-17T15:00:02.166Z,62.50
2022-08-17T15:02:30.664Z,64.10
2022-08-17T15:05:05.698Z,64.10
2022-08-17T15:07:32.783Z,63.40
2022-08-17T15:10:01.339Z,63.50
2022-08-17T15:12:33.354Z,63.40
2022-08-17T15:15:05.546Z,63.90
2022-08-17T15:17:44.756Z,64.70
2022-08-17T15:20:18.979Z,70.60
2022-08-17T15:22:47.050Z,71.90
2022-08-17T15:25:14.586Z,73.30
2022-08-17T15:27:42.004Z,74.90
2022-08-17T15:30:10.187Z,75.70
2022-08-17T15:32:40.850Z,76.50
2022-08-17T15:35:11.794Z,76.50
2022-08-17T15:37:40.184Z,78.00
2022-08-17T15:40:09.080Z,77.30
2022-08-17T15:42:36.575Z,77.40
2022-08-17T15:45:10.882Z,74.60
2022-08-17T15:47:38.269Z,68.30
2022-08-17T15:50:07.534Z,68.60
2022-08-17T15:52:40.058Z,67.70
2022-08-17T15:55:10.731Z,67.30
2022-08-17T15:57:37.612Z,66.80
2022-08-17T16:00:06.215Z,66.60
2022-08-17T16:03:45.966Z,66.40
2022-08-17T16:05:31.200Z,66.60
2022-08-17T16:07:59.729Z,66.10
2022-08-17T16:10:35.162Z,65.70
2022-08-17T16:13:04.072Z,65.40
2022-08-17T16:15:33.682Z,64.70
2022-08-17T16:18:00.565Z,64.20
2022-08-17T16:20:27.716Z,64.40
2022-08-17T16:22:55.217Z,64.20
2022-08-17T16:25:52.144Z,64.10
2022-08-17T16:28:16.919Z,64.30
2022-08-17T16:30:44.282Z,64.10
2022-08-17T16:33:11.846Z,63.80
2022-08-17T16:35:39.608Z,63.20
2022-08-17T16:38:07.258Z,63.90
2022-08-17T16:40:35.756Z,63.50
2022-08-17T16:43:03.975Z,63.10
2022-08-17T16:45:36.563Z,61.20
2022-08-17T16:48:04.441Z,59.50
2022-08-17T16:50:32.538Z,59.70
2022-08-17T16:53:06.730Z,60.90
2022-08-17T16:55:35.759Z,59.70
2022-08-17T16:58:08.782Z,59.30
2022-08-17T17:00:36.684Z,58.80
2022-08-17T17:03:19.074Z,59.70
2022-08-17T17:06:02.801Z,59.30
2022-08-17T17:08:46.795Z,59.40
2022-08-17T17:11:21.487Z,58.80
2022-08-17T17:14:01.621Z,59.20
2022-08-17T17:17:12.966Z,58.70
2022-08-17T17:19:46.835Z,57.60
2022-08-17T17:22:24.445Z,58.40
2022-08-17T17:25:30.254Z,57.90
2022-08-17T17:28:15.906Z,58.00
2022-08-17T17:30:51.402Z,57.60
2022-08-17T17:33:22.511Z,57.70
2022-08-17T17:36:00.047Z,58.00
2022-08-17T17:38:34.299Z,58.10
2022-08-17T17:41:12.033Z,58.60
2022-08-17T17:43:40.879Z,59.00
2022-08-17T17:46:28.214Z,59.80
2022-08-17T17:48:56.762Z,60.50
2022-08-17T17:52:06.719Z,62.00
2022-08-17T17:54:19.405Z,62.70
2022-08-17T17:56:55.469Z,62.50
2022-08-17T17:59:32.844Z,64.20
2022-08-17T18:02:51.652Z,64.20
2022-08-17T18:05:25.231Z,65.20
2022-08-17T18:08:01.501Z,67.30
2022-08-17T18:10:41.550Z,67.60
2022-08-17T18:13:17.695Z,69.10
2022-08-17T18:15:54.016Z,69.90
2022-08-17T18:18:38.088Z,71.00
2022-08-17T18:21:19.304Z,72.50
2022-08-17T18:23:53.811Z,72.70
2022-08-17T18:26:32.795Z,73.10
2022-08-17T18:29:01.368Z,74.20
2022-08-17T18:31:28.142Z,74.80
2022-08-17T18:34:36.092Z,75.40
2022-08-17T18:37:05.869Z,76.40
2022-08-17T18:39:32.890Z,78.40
2022-08-17T18:42:03.019Z,81.00
2022-08-17T18:44:35.735Z,84.80
2022-08-17T18:47:08.386Z,88.10
2022-08-17T18:49:35.703Z,90.70
2022-08-17T18:52:27.766Z,92.20
2022-08-17T18:55:20.936Z,94.10
2022-08-17T18:57:58.809Z,96.30
2022-08-17T19:00:41.393Z,98.70
2022-08-17T19:03:19.963Z,99.90
2022-08-17T19:05:57.287Z,99.90
2022-08-17T19:08:30.016Z,99.90
2022-08-17T19:11:02.463Z,99.90
2022-08-17T19:13:40.947Z,99.90
2022-08-17T19:16:23.837Z,99.90
2022-08-17T19:19:15.066Z,99.90
2022-08-17T19:21:55.463Z,99.90
2022-08-17T19:24:24.642Z,99.90
2022-08-17T19:26:59.171Z,99.90
2022-08-17T19:29:39.546Z,99.90
2022-08-17T19:32:11.147Z,99.90
2022-08-17T19:34:39.337Z,99.90
2022-08-17T19:37:16.154Z,99.90
2022-08-17T19:39:49.011Z,99.90
2022-08-17T19:42:18.796Z,99.90
2022-08-17T19:45:08.049Z,99.90
2022-08-17T19:48:26.264Z,99.90
2022-08-17T19:51:24.434Z,99.90
2022-08-17T19:54:07.274Z,99.90
2022-08-17T19:57:02.012Z,99.90
2022-08-17T19:59:58.534Z,99.90
2022-08-17T20:02:34.247Z,99.90
2022-08-17T20:05:07.122Z,99.90
2022-08-17T20:08:03.804Z,99.90
2022-08-17T20:10:37.127Z,99.90
2022-08-17T20:13:11.301Z,99.90
2022-08-17T20:15:42.079Z,99.90
2022-08-17T20:18:27.515Z,99.90
2022-08-17T20:21:37.071Z,99.90
2022-08-17T20:24:28.278Z,99.90
2022-08-17T20:27:09.798Z,99.90
2022-08-17T20:30:07.951Z,99.90
2022-08-17T20:32:53.061Z,99.90
2022-08-17T20:35:35.420Z,99.90
2022-08-17T20:38:33.354Z,99.90
2022-08-17T20:41:03.847Z,99.90
2022-08-17T20:43:33.756Z,99.90
2022-08-17T20:46:19.605Z,99.90
2022-08-17T20:48:50.673Z,99.90
2022-08-17T20:51:19.401Z,99.90
2022-08-17T20:53:55.233Z,99.90
2022-08-17T20:56:43.675Z,99.90
2022-08-17T20:59:24.044Z,99.90
2022-08-17T21:02:19.363Z,99.90
2022-08-17T21:05:00.816Z,99.90
2022-08-17T21:07:43.458Z,99.90
2022-08-17T21:10:29.640Z,99.90
2022-08-17T21:13:10.117Z,99.90
2022-08-17T21:15:42.736Z,99.90
2022-08-17T21:18:15.496Z,99.90
2022-08-17T21:21:25.969Z,99.90
2022-08-17T21:24:30.432Z,99.90
2022-08-17T21:27:06.062Z,99.90
2022-08-17T21:29:34.196Z,99.90
2022-08-17T21:32:07.542Z,99.90
2022-08-17T21:35:07.499Z,99.90
2022-08-17T21:37:44.871Z,99.90
2022-08-17T21:40:17.941Z,99.90
2022-08-17T21:42:47.340Z,99.90
2022-08-17T21:45:22.607Z,99.90
2022-08-17T21:47:50.660Z,99.90
2022-08-17T21:50:24.467Z,99.90
2022-08-17T21:53:02.317Z,99.90
2022-08-17T21:55:32.445Z,99.90
2022-08-17T21:58:14.780Z,99.90
2022-08-17T22:00:46.009Z,99.90
2022-08-17T22:03:25.889Z,99.90
2022-08-17T22:05:52.688Z,99.90
2022-08-17T22:08:23.960Z,99.90
2022-08-17T22:11:01.137Z,99.90
2022-08-17T22:13:29.786Z,99.90
2022-08-17T22:16:29.518Z,99.90
2022-08-17T22:18:58.851Z,99.90
2022-08-17T22:21:26.360Z,99.90
2022-08-17T22:24:06.489Z,99.90
2022-08-17T22:26:59.112Z,99.90
2022-08-17T22:29:47.852Z,99.90
2022-08-17T22:32:50.373Z,99.90
2022-08-17T22:35:35.050Z,99.90
2022-08-17T22:38:19.805Z,99.90
2022-08-17T22:40:49.821Z,99.90
2022-08-17T22:43:21.299Z,99.90
2022-08-17T22:45:57.405Z,99.90
2022-08-17T22:48:27.940Z,99.90
2022-08-17T22:51:17.511Z,99.90
2022-08-17T22:54:14.950Z,99.90
2022-08-17T22:57:12.594Z,99.90
2022-08-17T22:59:51.438Z,99.90
2022-08-17T23:02:30.725Z,99.90
2022-08-17T23:05:23.931Z,99.90
2022-08-17T23:07:52.630Z,99.90
2022-08-17T23:10:19.649Z,99.90
2022-08-17T23:12:46.672Z,99.90
2022-08-17T23:15:16.520Z,99.90
2022-08-17T23:17:45.319Z,99.90
2022-08-17T23:20:14.939Z,99.90
2022-08-17T23:22:52.372Z,99.90
2022-08-17T23:25:31.447Z,99.90
2022-08-17T23:28:01.667Z,99.90
2022-08-17T23:30:31.156Z,99.90
2022-08-17T23:33:06.236Z,99.90
2022-08-17T23:35:40.563Z,99.90
2022-08-17T23:38:12.932Z,99.90
2022-08-17T23:40:40.733Z,99.90
2022-08-17T23:43:25.767Z,99.90
2022-08-17T23:45:57.505Z,99.90
2022-08-17T23:48:35.479Z,99.90
2022-08-17T23:51:15.340Z,99.90
2022-08-17T23:53:47.310Z,99.90
2022-08-17T23:56:14.727Z,99.90
2022-08-17T23:58:42.814Z,99.90
